Dunnellon, Florida
Current Conditions -  °F | °C
As of 3:55 PM on Sunday 23 Nov 2014 (Local Time) from KCGC Reporting Station
Clear Clear  
Wind Chill: 81°   Ceiling: Unl
Heat Index: 83°   Visibility: 10mi
Dew Point: 68°   Wind: 6mph
Humidity: 65%   Direction: 220°SW
Pressure: 29.87"   Gusts: NA
Location:  29.05°N, 82.45°W
Report Text: KCGC 232055Z AUTO 22005KT 10SM CLR 27/20 A2987 RMK AO2 LTG DSNT N
Loading
Personal Weather Stations






























Interactive Weather Map New forecast layout! Learn more

10-Day Weather Forecast

Advertisements
Track Severe Weather on mobile